createdAt,value
2024-01-24T00:02:02.637Z,2.75
2024-01-24T00:04:29.502Z,2.25
2024-01-24T00:07:22.613Z,1.10
2024-01-24T00:09:49.410Z,1.60
2024-01-24T00:12:15.980Z,1.95
2024-01-24T00:14:42.950Z,2.75
2024-01-24T00:17:09.622Z,2.53
2024-01-24T00:19:36.307Z,2.08
2024-01-24T00:22:04.160Z,2.03
2024-01-24T00:24:30.834Z,1.33
2024-01-24T00:26:57.596Z,1.20
2024-01-24T00:29:24.097Z,2.42
2024-01-24T00:31:50.647Z,2.35
2024-01-24T00:34:17.277Z,1.90
2024-01-24T00:36:43.884Z,1.65
2024-01-24T00:39:10.698Z,1.98
2024-01-24T00:41:37.281Z,2.80
2024-01-24T00:44:03.923Z,3.42
2024-01-24T00:46:30.483Z,2.80
2024-01-24T00:48:57.042Z,3.30
2024-01-24T00:51:23.955Z,3.50
2024-01-24T00:53:55.031Z,3.55
2024-01-24T00:56:21.890Z,3.80
2024-01-24T00:58:48.342Z,3.28
2024-01-24T01:01:14.895Z,3.85
2024-01-24T01:03:42.504Z,5.43
2024-01-24T01:06:09.044Z,3.95
2024-01-24T01:08:35.648Z,6.90
2024-01-24T01:11:02.366Z,5.47
2024-01-24T01:13:28.986Z,4.25
2024-01-24T01:15:55.522Z,7.13
2024-01-24T01:18:22.121Z,6.35
2024-01-24T01:20:48.820Z,6.30
2024-01-24T01:23:15.349Z,7.63
2024-01-24T01:25:41.850Z,6.32
2024-01-24T01:28:08.326Z,5.95
2024-01-24T01:30:35.658Z,7.32
2024-01-24T01:33:02.249Z,6.32
2024-01-24T01:35:28.801Z,6.75
2024-01-24T01:37:55.318Z,5.47
2024-01-24T01:40:21.880Z,6.97
2024-01-24T01:42:48.469Z,8.43
2024-01-24T01:45:15.199Z,6.80
2024-01-24T01:47:42.306Z,7.55
2024-01-24T01:50:15.147Z,5.25
2024-01-24T01:52:43.645Z,7.25
2024-01-24T01:55:12.849Z,6.57
2024-01-24T01:57:42.976Z,6.00
2024-01-24T02:00:11.520Z,5.53
2024-01-24T02:02:38.156Z,5.22
2024-01-24T02:05:05.319Z,5.25
2024-01-24T02:07:31.925Z,5.55
2024-01-24T02:09:58.582Z,5.10
2024-01-24T02:12:25.184Z,5.82
2024-01-24T02:14:52.317Z,5.72
2024-01-24T02:17:18.942Z,3.55
2024-01-24T02:19:45.549Z,5.20
2024-01-24T02:22:12.038Z,4.55
2024-01-24T02:24:38.609Z,3.22
2024-01-24T02:27:05.378Z,4.45
2024-01-24T02:29:31.868Z,4.50
2024-01-24T02:31:58.390Z,4.25
2024-01-24T02:34:24.987Z,5.03
2024-01-24T02:36:51.586Z,3.40
2024-01-24T02:39:18.927Z,3.28
2024-01-24T02:41:45.608Z,3.05
2024-01-24T02:44:12.067Z,3.65
2024-01-24T02:46:38.624Z,4.88
2024-01-24T02:49:05.278Z,5.97
2024-01-24T02:51:32.255Z,4.55
2024-01-24T02:53:58.785Z,5.70
2024-01-24T02:56:25.401Z,4.57
2024-01-24T02:58:51.903Z,4.75
2024-01-24T03:01:18.549Z,3.25
2024-01-24T03:03:45.255Z,2.83
2024-01-24T03:06:12.337Z,3.25
2024-01-24T03:08:58.569Z,2.97
2024-01-24T03:11:25.452Z,3.33
2024-01-24T03:13:51.950Z,4.15
2024-01-24T03:16:18.817Z,2.92
2024-01-24T03:18:45.654Z,2.58
2024-01-24T03:21:16.264Z,2.80
2024-01-24T03:23:43.206Z,4.00
2024-01-24T03:26:09.883Z,2.92
2024-01-24T03:28:37.004Z,3.50
2024-01-24T03:31:03.981Z,4.30
2024-01-24T03:33:30.841Z,4.00
2024-01-24T03:35:57.673Z,3.67
2024-01-24T03:38:24.161Z,4.10
2024-01-24T03:40:51.282Z,3.15
2024-01-24T03:43:17.773Z,3.55
2024-01-24T03:45:45.060Z,3.60
2024-01-24T03:48:11.871Z,4.43
2024-01-24T03:50:39.199Z,2.78
2024-01-24T03:53:06.209Z,3.22
2024-01-24T03:55:33.337Z,3.50
2024-01-24T03:57:59.979Z,2.00
2024-01-24T04:00:28.944Z,4.00
2024-01-24T04:02:55.655Z,4.15
2024-01-24T04:05:22.138Z,2.92
2024-01-24T04:07:48.667Z,4.45
2024-01-24T04:10:16.683Z,4.25
2024-01-24T04:12:43.577Z,3.38
2024-01-24T04:15:10.291Z,4.50
2024-01-24T04:17:36.908Z,3.78
2024-01-24T04:20:03.717Z,6.15
2024-01-24T04:22:30.378Z,3.88
2024-01-24T04:24:58.624Z,1.98
2024-01-24T04:27:25.250Z,3.17
2024-01-24T04:29:51.761Z,2.72
2024-01-24T04:32:18.308Z,5.93
2024-01-24T04:34:45.815Z,1.15
2024-01-24T04:37:12.599Z,4.50
2024-01-24T04:39:39.092Z,1.85
2024-01-24T04:42:12.145Z,1.88
2024-01-24T04:44:43.352Z,3.42
2024-01-24T04:47:10.045Z,1.65
2024-01-24T04:49:44.546Z,2.60
2024-01-24T04:52:12.628Z,2.17
2024-01-24T04:54:39.276Z,3.13
2024-01-24T04:57:05.857Z,8.65
2024-01-24T04:59:39.022Z,5.95
2024-01-24T05:02:12.806Z,9.25
2024-01-24T05:04:39.418Z,7.70
2024-01-24T05:07:05.906Z,6.97
2024-01-24T05:09:32.433Z,7.78
2024-01-24T05:11:58.944Z,13.70
2024-01-24T05:14:25.389Z,14.68
2024-01-24T05:16:52.026Z,12.70
2024-01-24T05:19:18.694Z,13.23
2024-01-24T05:21:45.337Z,13.63
2024-01-24T05:24:12.011Z,14.95
2024-01-24T05:26:38.829Z,15.30
2024-01-24T05:29:07.375Z,15.10
2024-01-24T05:31:35.047Z,16.58
2024-01-24T05:34:03.283Z,17.30
2024-01-24T05:36:30.399Z,19.92
2024-01-24T05:38:57.120Z,19.35
2024-01-24T05:41:23.882Z,19.23
2024-01-24T05:43:50.521Z,15.45
2024-01-24T05:46:17.020Z,19.42
2024-01-24T05:48:43.808Z,21.05
2024-01-24T05:51:11.885Z,19.67
2024-01-24T05:53:41.113Z,22.38
2024-01-24T05:56:08.032Z,16.42
2024-01-24T05:58:34.591Z,19.75
2024-01-24T06:01:01.195Z,20.13
2024-01-24T06:03:27.723Z,25.20
2024-01-24T06:05:55.915Z,22.33
2024-01-24T06:08:22.535Z,22.08
2024-01-24T06:10:49.163Z,24.30
2024-01-24T06:13:15.697Z,25.85
2024-01-24T06:15:42.250Z,25.15
2024-01-24T06:18:08.748Z,22.02
2024-01-24T06:20:35.306Z,21.90
2024-01-24T06:23:02.145Z,20.17
2024-01-24T06:25:28.702Z,18.48
2024-01-24T06:27:55.270Z,26.08
2024-01-24T06:30:23.924Z,24.73
2024-01-24T06:32:53.011Z,26.00
2024-01-24T06:35:20.843Z,21.90
2024-01-24T06:37:48.995Z,21.42
2024-01-24T06:40:16.258Z,20.27
2024-01-24T06:42:42.947Z,14.55
2024-01-24T06:45:10.013Z,16.70
2024-01-24T06:47:36.524Z,17.75
2024-01-24T06:50:03.309Z,19.45
2024-01-24T06:52:31.788Z,15.05
2024-01-24T06:54:59.086Z,24.50
2024-01-24T06:57:26.415Z,16.42
2024-01-24T06:59:54.168Z,20.80
2024-01-24T07:02:20.842Z,14.75
2024-01-24T07:04:47.496Z,22.38
2024-01-24T07:07:15.706Z,25.13
2024-01-24T07:09:42.417Z,24.17
2024-01-24T07:12:09.121Z,20.33
2024-01-24T07:14:35.705Z,26.50
2024-01-24T07:17:02.891Z,18.38
2024-01-24T07:19:30.100Z,22.55
2024-01-24T07:21:56.787Z,19.33
2024-01-24T07:24:23.578Z,20.15
2024-01-24T07:26:50.092Z,28.13
2024-01-24T07:29:16.622Z,24.55
2024-01-24T07:31:43.074Z,33.35
2024-01-24T07:34:09.690Z,20.70
2024-01-24T07:36:36.326Z,28.42
2024-01-24T07:39:05.848Z,26.27
2024-01-24T07:41:32.311Z,26.48
2024-01-24T07:43:59.608Z,32.15
2024-01-24T07:46:26.764Z,27.90
2024-01-24T07:48:53.633Z,29.05
2024-01-24T07:51:22.065Z,31.15
2024-01-24T07:53:49.928Z,30.42
2024-01-24T07:56:24.349Z,34.05
2024-01-24T07:58:53.099Z,29.15
2024-01-24T08:01:20.488Z,34.28
2024-01-24T08:03:50.400Z,39.22
2024-01-24T08:06:18.762Z,32.08
2024-01-24T08:08:45.396Z,33.15
2024-01-24T08:11:12.129Z,32.90
2024-01-24T08:13:38.758Z,26.60
2024-01-24T08:16:05.696Z,29.73
2024-01-24T08:18:33.320Z,26.73
2024-01-24T08:21:00.176Z,28.95
2024-01-24T08:23:34.444Z,33.35
2024-01-24T08:26:10.530Z,33.63
2024-01-24T08:28:37.292Z,35.05
2024-01-24T08:31:03.891Z,33.70
2024-01-24T08:33:33.628Z,26.10
2024-01-24T08:36:00.546Z,35.25
2024-01-24T08:38:28.115Z,30.52
2024-01-24T08:40:54.613Z,39.83
2024-01-24T08:43:21.190Z,37.10
2024-01-24T08:45:51.524Z,36.92
2024-01-24T08:48:19.033Z,40.15
2024-01-24T08:50:45.708Z,35.50
2024-01-24T08:53:12.225Z,43.85
2024-01-24T08:55:38.862Z,38.25
2024-01-24T08:58:06.037Z,34.67
2024-01-24T09:00:32.783Z,33.15
2024-01-24T09:03:00.207Z,33.70
2024-01-24T09:05:27.069Z,36.22
2024-01-24T09:07:54.290Z,37.17
2024-01-24T09:10:21.439Z,37.97
2024-01-24T09:12:48.347Z,32.88
2024-01-24T09:15:15.114Z,35.65
2024-01-24T09:17:41.758Z,40.58
2024-01-24T09:20:09.264Z,32.75
2024-01-24T09:22:36.002Z,37.35
2024-01-24T09:25:06.499Z,31.13
2024-01-24T09:27:34.986Z,38.33
2024-01-24T09:30:01.537Z,33.35
2024-01-24T09:32:28.365Z,38.47
2024-01-24T09:34:55.235Z,34.22
2024-01-24T09:37:22.613Z,26.55
2024-01-24T09:39:51.222Z,37.25
2024-01-24T09:42:23.853Z,41.42
2024-01-24T09:44:50.925Z,34.80
2024-01-24T09:47:18.396Z,43.72
2024-01-24T09:49:45.669Z,29.90
2024-01-24T09:52:15.073Z,36.78
2024-01-24T09:54:43.387Z,46.30
2024-01-24T09:57:11.374Z,27.08
2024-01-24T09:59:38.021Z,35.97
2024-01-24T10:02:06.668Z,35.50
2024-01-24T10:04:38.480Z,36.63
2024-01-24T10:07:09.949Z,29.73
2024-01-24T10:09:36.834Z,35.78
2024-01-24T10:12:04.954Z,31.50
2024-01-24T10:14:31.787Z,33.10
2024-01-24T10:16:58.787Z,39.05
2024-01-24T10:19:26.245Z,36.40
2024-01-24T10:21:53.517Z,34.92
2024-01-24T10:24:20.719Z,34.28
2024-01-24T10:26:48.471Z,37.78
2024-01-24T10:29:16.028Z,40.15
2024-01-24T10:31:43.207Z,34.08
2024-01-24T10:34:10.521Z,39.20
2024-01-24T10:36:43.476Z,38.83
2024-01-24T10:39:15.407Z,35.05
2024-01-24T10:41:44.951Z,35.17
2024-01-24T10:44:16.407Z,36.10
2024-01-24T10:46:43.912Z,43.28
2024-01-24T10:49:13.738Z,33.58
2024-01-24T10:51:41.155Z,39.60
2024-01-24T10:54:09.174Z,32.05
2024-01-24T10:56:37.294Z,36.88
2024-01-24T10:59:07.195Z,39.45
2024-01-24T11:01:34.306Z,32.97
2024-01-24T11:04:07.682Z,33.25
2024-01-24T11:06:42.936Z,28.77
2024-01-24T11:09:35.913Z,23.30
2024-01-24T11:12:03.257Z,32.75
2024-01-24T11:14:30.860Z,33.92
2024-01-24T11:17:02.455Z,31.70
2024-01-24T11:19:30.032Z,28.38
2024-01-24T11:22:13.401Z,34.78
2024-01-24T11:24:47.266Z,41.83
2024-01-24T11:27:37.257Z,31.60
2024-01-24T11:30:39.479Z,31.48
2024-01-24T11:33:06.356Z,36.25
2024-01-24T11:35:43.095Z,41.45
2024-01-24T11:38:25.727Z,37.85
2024-01-24T11:41:23.958Z,39.92
2024-01-24T11:43:50.698Z,39.85
2024-01-24T11:46:19.755Z,30.08
2024-01-24T11:48:46.565Z,32.63
2024-01-24T11:51:15.872Z,33.83
2024-01-24T11:53:42.638Z,33.53
2024-01-24T11:56:17.017Z,32.05
2024-01-24T11:58:43.620Z,36.00
2024-01-24T12:01:14.533Z,36.08
2024-01-24T12:03:48.266Z,30.17
2024-01-24T12:06:15.079Z,29.55
2024-01-24T12:08:45.651Z,27.20
2024-01-24T12:11:12.240Z,34.40
2024-01-24T12:13:39.172Z,30.13
2024-01-24T12:16:10.098Z,28.75
2024-01-24T12:18:37.703Z,32.80
2024-01-24T12:21:09.425Z,32.50
2024-01-24T12:23:36.203Z,31.38
2024-01-24T12:26:03.626Z,31.80
2024-01-24T12:28:30.977Z,33.42
2024-01-24T12:30:58.855Z,29.48
2024-01-24T12:33:25.821Z,26.00
2024-01-24T12:35:52.626Z,37.03
2024-01-24T12:38:19.705Z,30.05
2024-01-24T12:40:53.802Z,31.30
2024-01-24T12:43:23.662Z,32.72
2024-01-24T12:45:51.779Z,38.58
2024-01-24T12:48:19.865Z,29.20
2024-01-24T12:50:50.331Z,40.53
2024-01-24T12:53:17.685Z,33.35
2024-01-24T12:55:44.566Z,34.38
2024-01-24T12:58:11.289Z,33.80
2024-01-24T13:00:38.197Z,26.75
2024-01-24T13:03:06.818Z,30.20
2024-01-24T13:05:42.889Z,32.03
2024-01-24T13:08:15.129Z,28.48
2024-01-24T13:10:44.088Z,30.15
2024-01-24T13:13:11.427Z,31.80
2024-01-24T13:15:42.396Z,37.28
2024-01-24T13:18:13.166Z,32.03
2024-01-24T13:20:41.302Z,29.98
2024-01-24T13:23:07.924Z,32.72
2024-01-24T13:25:34.622Z,29.90
2024-01-24T13:28:03.743Z,35.25
2024-01-24T13:30:30.693Z,31.67
2024-01-24T13:32:57.631Z,33.42
2024-01-24T13:35:24.457Z,26.50
2024-01-24T13:37:51.358Z,30.98
2024-01-24T13:40:19.350Z,33.78
2024-01-24T13:42:46.310Z,30.02
2024-01-24T13:45:13.132Z,28.67
2024-01-24T13:47:39.898Z,30.85
2024-01-24T13:50:07.081Z,34.67
2024-01-24T13:52:33.924Z,36.00
2024-01-24T13:55:00.710Z,34.05
2024-01-24T13:57:27.304Z,28.25
2024-01-24T13:59:53.993Z,32.40
2024-01-24T14:02:20.570Z,35.33
2024-01-24T14:04:47.311Z,36.60
2024-01-24T14:07:14.068Z,32.80
2024-01-24T14:09:41.059Z,33.28
2024-01-24T14:12:09.433Z,36.70
2024-01-24T14:14:36.435Z,37.35
2024-01-24T14:17:03.004Z,39.05
2024-01-24T14:19:29.664Z,41.70
2024-01-24T14:21:56.837Z,44.50
2024-01-24T14:24:23.413Z,38.05
2024-01-24T14:26:50.082Z,35.38
2024-01-24T14:29:16.629Z,33.45
2024-01-24T14:31:43.494Z,35.67
2024-01-24T14:34:10.324Z,33.78
2024-01-24T14:36:37.730Z,37.80
2024-01-24T14:39:07.447Z,37.95
2024-01-24T14:41:34.227Z,36.42
2024-01-24T14:44:00.834Z,53.25
2024-01-24T14:46:27.386Z,42.45
2024-01-24T14:48:54.053Z,44.15
2024-01-24T14:51:21.119Z,43.72
2024-01-24T14:53:47.887Z,46.88
2024-01-24T14:56:14.420Z,40.35
2024-01-24T14:58:41.970Z,41.47
2024-01-24T15:01:09.442Z,45.10
2024-01-24T15:03:37.172Z,44.00
2024-01-24T15:06:04.256Z,37.20
2024-01-24T15:08:30.927Z,45.40
2024-01-24T15:10:57.700Z,35.22
2024-01-24T15:13:24.176Z,34.60
2024-01-24T15:15:51.763Z,46.00
2024-01-24T15:18:20.443Z,44.30
2024-01-24T15:20:54.176Z,38.95
2024-01-24T15:23:30.099Z,48.60
2024-01-24T15:25:57.481Z,41.40
2024-01-24T15:28:24.075Z,40.95
2024-01-24T15:30:50.968Z,50.58
2024-01-24T15:33:19.298Z,41.75
2024-01-24T15:35:46.781Z,45.55
2024-01-24T15:38:13.813Z,40.67
2024-01-24T15:40:40.345Z,43.13
2024-01-24T15:43:09.911Z,48.35
2024-01-24T15:45:37.253Z,46.60
2024-01-24T15:48:04.721Z,49.53
2024-01-24T15:50:31.535Z,42.17
2024-01-24T15:52:58.189Z,40.95
2024-01-24T15:55:24.850Z,52.83
2024-01-24T15:57:52.008Z,52.45
2024-01-24T16:00:20.896Z,39.35
2024-01-24T16:02:47.662Z,42.85
2024-01-24T16:05:36.036Z,39.28
2024-01-24T16:08:05.495Z,48.92
2024-01-24T16:10:32.006Z,42.05
2024-01-24T16:12:58.681Z,51.63
2024-01-24T16:15:25.601Z,46.95
2024-01-24T16:17:52.599Z,42.83
2024-01-24T16:20:19.195Z,43.30
2024-01-24T16:22:54.297Z,40.63
2024-01-24T16:25:26.408Z,47.55
2024-01-24T16:27:54.339Z,41.80
2024-01-24T16:30:21.389Z,41.22
2024-01-24T16:32:52.811Z,50.15
2024-01-24T16:35:19.856Z,48.28
2024-01-24T16:37:46.532Z,45.75
2024-01-24T16:40:13.723Z,47.13
2024-01-24T16:42:40.958Z,42.17
2024-01-24T16:45:09.833Z,48.53
2024-01-24T16:47:36.569Z,44.35
2024-01-24T16:50:03.494Z,41.17
2024-01-24T16:52:30.013Z,37.00
2024-01-24T16:54:56.613Z,46.35
2024-01-24T16:57:23.192Z,48.90
2024-01-24T16:59:51.610Z,44.92
2024-01-24T17:02:18.133Z,39.25
2024-01-24T17:04:46.415Z,43.70
2024-01-24T17:07:13.447Z,39.30
2024-01-24T17:09:41.005Z,51.35
2024-01-24T17:12:11.061Z,44.88
2024-01-24T17:14:39.081Z,49.80
2024-01-24T17:17:08.210Z,38.63
2024-01-24T17:19:35.050Z,47.30
2024-01-24T17:22:02.440Z,39.10
2024-01-24T17:24:28.993Z,47.60
2024-01-24T17:26:55.497Z,50.78
2024-01-24T17:29:22.082Z,43.17
2024-01-24T17:31:48.798Z,49.08
2024-01-24T17:34:16.410Z,41.63
2024-01-24T17:36:43.153Z,47.58
2024-01-24T17:39:10.352Z,45.15
2024-01-24T17:41:37.109Z,38.25
2024-01-24T17:44:04.776Z,45.22
2024-01-24T17:46:31.348Z,45.17
2024-01-24T17:48:57.973Z,43.33
2024-01-24T17:51:24.696Z,46.22
2024-01-24T17:53:51.508Z,55.08
2024-01-24T17:56:21.246Z,45.92
2024-01-24T17:58:50.376Z,41.35
2024-01-24T18:01:19.227Z,41.38
2024-01-24T18:03:45.951Z,40.63
2024-01-24T18:06:13.490Z,45.63
2024-01-24T18:08:40.521Z,46.65
2024-01-24T18:11:06.998Z,43.58
2024-01-24T18:13:33.630Z,42.50
2024-01-24T18:16:00.357Z,36.47
2024-01-24T18:18:27.531Z,42.05
2024-01-24T18:20:54.871Z,40.70
2024-01-24T18:23:21.561Z,45.22
2024-01-24T18:25:49.271Z,50.78
2024-01-24T18:28:17.690Z,39.50
2024-01-24T18:30:44.430Z,44.40
2024-01-24T18:33:13.596Z,41.80
2024-01-24T18:35:40.117Z,41.15
2024-01-24T18:38:06.632Z,49.50
2024-01-24T18:40:33.293Z,44.38
2024-01-24T18:43:02.165Z,51.97
2024-01-24T18:45:29.016Z,54.05
2024-01-24T18:47:55.865Z,49.38
2024-01-24T18:50:22.774Z,48.15
2024-01-24T18:52:49.488Z,36.25
2024-01-24T18:55:17.495Z,36.45
2024-01-24T18:57:47.910Z,38.35
2024-01-24T19:00:14.831Z,40.65
2024-01-24T19:02:41.561Z,36.60
2024-01-24T19:05:13.894Z,42.35
2024-01-24T19:07:45.825Z,40.05
2024-01-24T19:10:13.022Z,43.78
2024-01-24T19:12:39.716Z,46.92
2024-01-24T19:15:07.201Z,36.17
2024-01-24T19:17:34.078Z,42.70
2024-01-24T19:20:01.017Z,37.60
2024-01-24T19:22:27.828Z,44.67
2024-01-24T19:24:54.729Z,38.85
2024-01-24T19:27:22.273Z,45.05
2024-01-24T19:29:48.849Z,39.05
2024-01-24T19:32:15.643Z,34.67
2024-01-24T19:35:01.891Z,37.33
2024-01-24T19:37:28.554Z,41.42
2024-01-24T19:39:55.848Z,40.22
2024-01-24T19:42:27.478Z,47.63
2024-01-24T19:44:54.434Z,36.63
2024-01-24T19:47:21.725Z,37.10
2024-01-24T19:49:49.176Z,49.88
2024-01-24T19:52:15.807Z,36.75
2024-01-24T19:54:42.627Z,40.20
2024-01-24T19:57:09.243Z,39.30
2024-01-24T19:59:36.102Z,36.90
2024-01-24T20:02:03.617Z,41.58
2024-01-24T20:04:30.821Z,33.25
2024-01-24T20:06:58.002Z,39.35
2024-01-24T20:09:25.379Z,35.08
2024-01-24T20:11:51.957Z,39.10
2024-01-24T20:14:18.406Z,37.17
2024-01-24T20:16:45.256Z,52.08
2024-01-24T20:19:11.887Z,40.15
2024-01-24T20:21:41.988Z,39.92
2024-01-24T20:24:12.941Z,51.05
2024-01-24T20:26:39.717Z,42.50
2024-01-24T20:29:08.363Z,48.22
2024-01-24T20:31:34.990Z,45.35
2024-01-24T20:34:02.828Z,36.05
2024-01-24T20:36:29.574Z,44.13
2024-01-24T20:38:56.996Z,37.65
2024-01-24T20:41:24.893Z,47.45
2024-01-24T20:43:52.670Z,41.38
2024-01-24T20:46:19.504Z,36.05
2024-01-24T20:48:46.185Z,43.28
2024-01-24T20:51:13.072Z,43.60
2024-01-24T20:53:39.573Z,38.40
2024-01-24T20:56:06.514Z,39.65
2024-01-24T20:58:34.435Z,41.13
2024-01-24T21:01:02.338Z,35.90
2024-01-24T21:03:29.336Z,34.83
2024-01-24T21:05:56.574Z,43.60
2024-01-24T21:08:24.655Z,40.50
2024-01-24T21:10:55.892Z,43.63
2024-01-24T21:13:29.320Z,39.00
2024-01-24T21:15:56.145Z,37.72
2024-01-24T21:18:23.413Z,41.15
2024-01-24T21:20:50.680Z,37.05
2024-01-24T21:23:17.802Z,44.78
2024-01-24T21:25:44.376Z,49.88
2024-01-24T21:28:10.931Z,43.33
2024-01-24T21:30:37.591Z,41.15
2024-01-24T21:33:04.313Z,34.63
2024-01-24T21:35:30.894Z,40.97
2024-01-24T21:37:57.900Z,35.70
2024-01-24T21:40:24.401Z,36.53
2024-01-24T21:42:51.511Z,41.17
2024-01-24T21:45:18.297Z,38.78
2024-01-24T21:47:45.240Z,46.53
2024-01-24T21:50:12.634Z,46.85
2024-01-24T21:52:39.249Z,40.80
2024-01-24T21:55:07.531Z,41.58
2024-01-24T21:57:34.292Z,42.60
2024-01-24T22:00:01.868Z,47.50
2024-01-24T22:02:31.546Z,36.28
2024-01-24T22:04:58.110Z,39.58
2024-01-24T22:07:24.886Z,39.40
2024-01-24T22:09:53.301Z,37.03
2024-01-24T22:12:20.127Z,31.83
2024-01-24T22:14:46.718Z,38.60
2024-01-24T22:17:13.229Z,43.85
2024-01-24T22:19:40.315Z,42.65
2024-01-24T22:22:06.832Z,39.63
2024-01-24T22:24:33.406Z,39.83
2024-01-24T22:27:00.398Z,39.75
2024-01-24T22:29:27.096Z,39.95
2024-01-24T22:31:53.808Z,41.95
2024-01-24T22:34:20.973Z,38.88
2024-01-24T22:36:47.834Z,41.58
2024-01-24T22:39:14.400Z,41.45
2024-01-24T22:41:42.580Z,35.15
2024-01-24T22:44:11.010Z,39.20
2024-01-24T22:46:43.634Z,29.10
2024-01-24T22:49:11.465Z,35.72
2024-01-24T22:51:39.200Z,43.05
2024-01-24T22:54:07.340Z,50.15
2024-01-24T22:56:33.925Z,35.92
2024-01-24T22:59:00.602Z,39.33
2024-01-24T23:01:28.788Z,31.92
2024-01-24T23:03:55.596Z,31.30
2024-01-24T23:06:22.189Z,37.30
2024-01-24T23:08:48.675Z,38.58
2024-01-24T23:11:15.230Z,37.90
2024-01-24T23:13:41.815Z,38.95
2024-01-24T23:16:09.188Z,39.00
2024-01-24T23:18:36.066Z,29.85
2024-01-24T23:21:02.596Z,41.35
2024-01-24T23:23:29.080Z,40.88
2024-01-24T23:25:55.600Z,41.30
2024-01-24T23:28:22.312Z,38.88
2024-01-24T23:30:49.053Z,40.70
2024-01-24T23:33:15.658Z,35.78
2024-01-24T23:35:42.998Z,40.30
2024-01-24T23:38:09.542Z,40.38
2024-01-24T23:40:36.090Z,46.70
2024-01-24T23:43:02.706Z,34.42
2024-01-24T23:45:29.427Z,44.95
2024-01-24T23:47:56.117Z,46.40
2024-01-24T23:50:23.042Z,36.72
2024-01-24T23:52:49.998Z,35.33
2024-01-24T23:55:16.756Z,40.70
2024-01-24T23:57:43.374Z,38.13
